Time;durP1;ratioP1;P1;durP2;ratioP2;P2;SDS_P1;SDS_P2;PMS_P1;PMS_P2;Temp;Humidity;BMP_temperature;BMP_pressure;BME280_temperature;BME280_humidity;BME280_pressure;Samples;Min_cycle;Max_cycle;Signal;HPM_P1;HPM_P2
2022/06/25 00:01:51;;;;;;;8.40;5.40;;;;;;;15.40;71.21;99392.77;109145;1277;138446;-67
2022/06/25 00:07:05;;;;;;;7.30;5.20;;;;;;;15.37;71.49;99392.09;109175;1274;22441;-68
2022/06/25 00:09:32;;;;;;;4.80;4.20;;;;;;;15.34;71.52;99389.38;109173;1274;139455;-68
2022/06/25 00:14:44;;;;;;;7.60;4.50;;;;;;;15.27;71.72;99389.20;109103;1277;138888;-68
2022/06/25 00:17:11;;;;;;;7.50;5.00;;;;;;;15.25;71.70;99391.14;109294;1275;22570;-68
2022/06/25 00:19:37;;;;;;;9.20;4.60;;;;;;;15.21;71.73;99392.22;109137;1277;138509;-68
2022/06/25 00:22:04;;;;;;;6.90;4.00;;;;;;;15.18;71.91;99391.48;109258;1276;22442;-68
2022/06/25 00:24:31;;;;;;;7.70;4.90;;;;;;;15.15;71.95;99394.74;109205;1274;22446;-68
2022/06/25 00:26:58;;;;;;;8.40;4.30;;;;;;;15.13;72.12;99392.91;109031;1277;138663;-68
2022/06/25 00:29:24;;;;;;;8.70;4.70;;;;;;;15.11;72.12;99393.70;109179;1277;22475;-68
2022/06/25 00:31:51;;;;;;;5.40;4.40;;;;;;;15.09;72.20;99399.77;109071;1277;138871;-68
2022/06/25 00:34:19;;;;;;;5.10;4.20;;;;;;;15.06;72.33;99400.98;109210;1277;22474;-68
2022/06/25 00:36:46;;;;;;;8.70;5.10;;;;;;;15.05;72.50;99403.03;109142;1277;23429;-68
2022/06/25 00:39:13;;;;;;;5.70;4.50;;;;;;;15.03;72.65;99405.36;109124;1276;139836;-68
2022/06/25 00:41:39;;;;;;;5.00;4.30;;;;;;;15.01;72.74;99405.15;109161;1276;22483;-68
2022/06/25 00:44:07;;;;;;;9.30;4.60;;;;;;;14.99;72.76;99404.65;109202;1274;140425;-67
2022/06/25 00:46:35;;;;;;;7.10;4.60;;;;;;;14.97;72.83;99403.79;109179;1277;22581;-67
2022/06/25 00:49:02;;;;;;;9.20;4.90;;;;;;;14.96;72.88;99404.89;109160;1277;22474;-67
2022/06/25 00:51:33;;;;;;;5.60;3.90;;;;;;;14.95;73.00;99402.93;109124;1277;138138;-67
2022/06/25 00:54:03;;;;;;;7.60;4.70;;;;;;;14.94;73.01;99403.48;109185;1276;22420;-67
2022/06/25 00:56:36;;;;;;;9.80;4.80;;;;;;;14.91;73.05;99399.72;106770;1277;140013;-67
2022/06/25 00:59:04;;;;;;;5.40;3.80;;;;;;;14.90;73.14;99403.67;109191;1274;23409;-67
2022/06/25 01:01:32;;;;;;;5.20;4.20;;;;;;;14.87;73.18;99403.64;109210;1274;139272;-67
2022/06/25 01:03:59;;;;;;;6.90;4.30;;;;;;;14.84;73.19;99404.14;109088;1276;23187;-67
2022/06/25 01:06:28;;;;;;;5.60;4.20;;;;;;;14.82;73.15;99407.44;109276;1274;22432;-67
2022/06/25 01:08:58;;;;;;;5.40;4.60;;;;;;;14.80;73.09;99406.20;109162;1276;139281;-67
2022/06/25 01:11:25;;;;;;;5.60;4.30;;;;;;;14.79;73.34;99407.63;109208;1274;22937;-67
2022/06/25 01:13:52;;;;;;;5.70;3.70;;;;;;;14.81;73.55;99407.17;109136;1275;138007;-67
2022/06/25 01:16:21;;;;;;;8.20;4.40;;;;;;;14.83;73.49;99407.05;109238;1274;22535;-67
2022/06/25 01:18:49;;;;;;;9.40;4.60;;;;;;;14.85;73.28;99407.57;108802;1276;397614;-67
2022/06/25 01:22:32;;;;;;;5.70;4.00;;;;;;;14.89;73.28;99403.90;101857;1310;545258;-67
2022/06/25 01:24:59;;;;;;;6.00;4.20;;;;;;;14.88;73.35;99402.33;104920;1277;23057;-67
2022/06/25 01:27:26;;;;;;;7.80;4.90;;;;;;;14.91;73.43;99407.39;104516;1278;137601;-67
2022/06/25 01:29:53;;;;;;;7.00;4.10;;;;;;;14.93;73.22;99409.41;104521;1280;22554;-67
2022/06/25 01:32:19;;;;;;;5.90;4.20;;;;;;;14.93;73.12;99408.98;104419;1280;137306;-67
2022/06/25 01:34:48;;;;;;;9.50;4.60;;;;;;;14.92;73.06;99409.86;104517;1280;24324;-67
2022/06/25 01:37:15;;;;;;;5.10;4.00;;;;;;;14.90;73.08;99414.15;104696;1277;323631;-67
2022/06/25 01:39:42;;;;;;;6.70;4.50;;;;;;;14.86;73.11;99415.45;104718;1277;137633;-67
2022/06/25 01:42:58;;;;;;;7.90;4.70;;;;;;;14.82;73.20;99416.38;104729;1277;25773;-65
2022/06/25 01:44:55;;;;;;;25.10;5.80;;;;;;;14.79;73.40;99417.55;104922;1277;137671;-68
2022/06/25 01:47:22;;;;;;;14.10;5.50;;;;;;;14.77;73.51;99420.53;104983;1277;24303;-67
2022/06/25 01:49:49;;;;;;;6.50;4.90;;;;;;;14.76;73.46;99421.31;104960;1277;139064;-67
2022/06/25 01:52:15;;;;;;;7.80;4.60;;;;;;;14.74;73.45;99422.74;104771;1277;25220;-68
2022/06/25 01:54:42;;;;;;;9.50;4.40;;;;;;;14.71;73.41;99423.50;104731;1277;22561;-67
2022/06/25 01:57:12;;;;;;;11.40;4.30;;;;;;;14.70;73.59;99423.07;104474;1277;137879;-67
2022/06/25 01:59:40;;;;;;;5.10;4.10;;;;;;;14.72;73.76;99420.58;109110;1276;22520;-68
2022/06/25 02:02:07;;;;;;;12.10;4.00;;;;;;;14.73;73.73;99421.38;108955;1277;139791;-68
2022/06/25 02:04:34;;;;;;;7.00;4.00;;;;;;;14.74;73.69;99422.69;109009;1277;22450;-68
2022/06/25 02:07:01;;;;;;;9.20;4.60;;;;;;;14.75;73.63;99419.17;109245;1277;22522;-69
2022/06/25 02:09:27;;;;;;;6.40;4.10;;;;;;;14.76;73.68;99416.21;108984;1277;138385;-68
2022/06/25 02:11:56;;;;;;;12.70;4.30;;;;;;;14.80;73.70;99416.89;109095;1277;22468;-69
2022/06/25 02:14:23;;;;;;;6.40;3.90;;;;;;;14.86;73.65;99416.38;108716;1279;138927;-67
2022/06/25 02:16:50;;;;;;;8.60;4.50;;;;;;;14.90;73.44;99413.61;108922;1278;22578;-67
2022/06/25 02:19:17;;;;;;;7.80;4.10;;;;;;;14.92;73.39;99414.64;109055;1277;23246;-67
2022/06/25 02:21:43;;;;;;;5.30;4.10;;;;;;;14.93;73.36;99418.63;108927;1277;138921;-67
2022/06/25 02:24:10;;;;;;;5.00;4.10;;;;;;;14.95;73.45;99420.70;108974;1278;22451;-66
2022/06/25 02:26:37;;;;;;;7.50;4.20;;;;;;;14.98;73.47;99421.73;108831;1280;138005;-68
2022/06/25 02:29:04;;;;;;;5.70;3.90;;;;;;;15.02;73.40;99424.80;109014;1277;22440;-68
2022/06/25 02:31:30;;;;;;;6.70;3.50;;;;;;;15.07;73.22;99426.02;109056;1277;138186;-67
2022/06/25 02:33:58;;;;;;;4.90;3.40;;;;;;;15.14;73.10;99420.89;109131;1277;22465;-67
2022/06/25 02:36:25;;;;;;;8.00;3.50;;;;;;;15.24;72.97;99419.69;108980;1277;22473;-67
2022/06/25 02:38:52;;;;;;;6.00;3.90;;;;;;;15.33;72.88;99419.04;108908;1278;138888;-67
2022/06/25 02:41:19;;;;;;;4.30;3.60;;;;;;;15.41;72.61;99419.00;109031;1277;22456;-67
2022/06/25 02:43:46;;;;;;;8.00;3.70;;;;;;;15.49;72.36;99419.01;108869;1277;137988;-67
2022/06/25 02:46:29;;;;;;;4.90;3.90;;;;;;;15.59;71.99;99422.12;109060;1277;22459;-67
2022/06/25 02:48:56;;;;;;;4.20;3.60;;;;;;;15.68;71.67;99422.07;109289;1274;23136;-67
2022/06/25 02:51:23;;;;;;;10.10;4.10;;;;;;;15.77;71.46;99416.06;109143;1274;137950;-67
2022/06/25 02:53:50;;;;;;;6.40;3.60;;;;;;;15.85;71.18;99413.09;109246;1274;22606;-66
2022/06/25 02:59:03;;;;;;;4.40;3.30;;;;;;;16.03;70.95;99419.67;109289;1274;22454;-67
2022/06/25 03:01:38;;;;;;;5.00;3.50;;;;;;;16.11;70.85;99421.15;109134;1276;137841;-67
2022/06/25 03:04:05;;;;;;;3.80;3.20;;;;;;;16.19;70.61;99425.04;109296;1274;23297;-67
2022/06/25 03:06:32;;;;;;;4.00;3.30;;;;;;;16.28;70.41;99424.27;106767;1274;23161;-60
2022/06/25 03:09:00;;;;;;;7.30;2.90;;;;;;;16.38;69.93;99423.88;104816;1274;137617;-60
2022/06/25 03:11:27;;;;;;;4.80;3.10;;;;;;;16.49;69.49;99427.32;104929;1274;24230;-59
2022/06/25 03:13:54;;;;;;;4.70;3.00;;;;;;;16.63;69.20;99422.90;109197;1274;138362;-60
2022/06/25 03:16:21;;;;;;;4.20;3.30;;;;;;;16.78;68.82;99423.88;109224;1274;23244;-60
2022/06/25 03:18:50;;;;;;;4.20;3.60;;;;;;;16.90;68.38;99427.40;109365;1271;23122;-60
2022/06/25 03:21:49;;;;;;;6.60;3.30;;;;;;;17.06;67.94;99428.77;109138;1274;22448;-60
2022/06/25 03:24:17;;;;;;;4.50;3.30;;;;;;;17.21;67.45;99434.11;109276;1274;22528;-60
2022/06/25 03:26:44;;;;;;;6.80;3.30;;;;;;;17.33;67.13;99430.64;109254;1272;137342;-60
2022/06/25 03:29:11;;;;;;;6.50;3.30;;;;;;;17.45;66.69;99435.02;109266;1274;22423;-60
2022/06/25 03:31:37;;;;;;;7.60;3.10;;;;;;;17.56;66.37;99427.71;109191;1274;137269;-60
2022/06/25 03:34:24;;;;;;;4.70;3.30;;;;;;;17.67;65.93;99429.11;109395;1274;22422;-60
2022/06/25 03:36:51;;;;;;;6.80;3.40;;;;;;;17.77;65.63;99429.11;109222;1276;22475;-60
2022/06/25 03:39:18;;;;;;;3.40;3.10;;;;;;;17.85;65.44;99427.67;109141;1274;137501;-60
2022/06/25 03:41:45;;;;;;;3.90;3.50;;;;;;;17.95;65.29;99427.62;109236;1274;22436;-60
2022/06/25 03:44:38;;;;;;;5.60;4.00;;;;;;;18.05;64.70;99429.40;109120;1274;137898;-60
2022/06/25 03:47:26;;;;;;;8.00;3.10;;;;;;;18.15;64.17;99430.19;109237;1274;22473;-60
2022/06/25 03:49:53;;;;;;;5.50;2.90;;;;;;;18.21;64.15;99430.81;109261;1274;137221;-61
2022/06/25 03:52:22;;;;;;;4.60;3.00;;;;;;;18.29;63.83;99437.75;109086;1276;22456;-61
2022/06/25 03:54:49;;;;;;;10.60;3.50;;;;;;;18.36;63.90;99440.72;109268;1273;22449;-61
2022/06/25 03:57:15;;;;;;;6.60;3.20;;;;;;;18.44;63.77;99446.98;109131;1274;139629;-61
2022/06/25 03:59:47;;;;;;;7.20;3.30;;;;;;;18.51;63.54;99449.29;109285;1274;22724;-61
2022/06/25 04:02:24;;;;;;;6.90;3.50;;;;;;;18.59;63.00;99448.15;109153;1274;139769;-61
2022/06/25 04:05:20;;;;;;;2.90;2.60;;;;;;;18.68;62.37;99447.71;109466;1274;22500;-60
2022/06/25 04:07:46;;;;;;;4.30;2.80;;;;;;;18.76;62.00;99446.98;109128;1274;138983;-61
2022/06/25 04:10:14;;;;;;;6.40;3.30;;;;;;;18.84;61.80;99449.25;109271;1274;22484;-61
2022/06/25 04:12:41;;;;;;;6.30;3.20;;;;;;;18.90;61.80;99444.91;109350;1274;22443;-61
2022/06/25 04:15:10;;;;;;;4.10;3.20;;;;;;;18.98;61.55;99451.33;109153;1274;137519;-58
2022/06/25 04:17:37;;;;;;;4.20;3.30;;;;;;;19.05;61.74;99452.70;109290;1274;23225;-61
2022/06/25 04:20:04;;;;;;;5.10;3.20;;;;;;;19.13;61.72;99456.97;109152;1274;138198;-61
2022/06/25 04:22:31;;;;;;;5.60;3.30;;;;;;;19.20;61.12;99458.38;109355;1274;23281;-61
2022/06/25 04:24:59;;;;;;;5.40;3.20;;;;;;;19.28;61.02;99462.80;109305;1274;22540;-61
2022/06/25 04:30:11;;;;;;;3.90;3.30;;;;;;;19.44;59.85;99460.79;109254;1274;23162;-61
2022/06/25 04:32:40;;;;;;;4.00;3.00;;;;;;;19.50;59.71;99465.36;109093;1274;138453;-61
2022/06/25 04:35:18;;;;;;;5.80;3.30;;;;;;;19.58;59.85;99471.15;109310;1274;22582;-61
2022/06/25 04:37:45;;;;;;;6.80;3.00;;;;;;;19.65;59.64;99468.34;109246;1274;138561;-61
2022/06/25 04:40:14;;;;;;;6.30;3.40;;;;;;;19.72;59.13;99472.08;109259;1274;22495;-61
2022/06/25 04:42:43;;;;;;;5.50;3.90;;;;;;;19.78;58.50;99473.00;109291;1274;22416;-62
2022/06/25 04:45:10;;;;;;;4.10;2.90;;;;;;;19.83;58.45;99480.45;109159;1274;138092;-60
2022/06/25 04:47:44;;;;;;;5.20;3.30;;;;;;;19.87;58.30;99478.13;109251;1274;22455;-62
2022/06/25 04:50:29;;;;;;;3.30;3.00;;;;;;;19.94;58.36;99479.08;109135;1274;138007;-61
2022/06/25 04:52:56;;;;;;;8.20;3.50;;;;;;;20.00;58.39;99479.95;109160;1274;22597;-61
2022/06/25 04:55:23;;;;;;;5.90;2.90;;;;;;;20.05;57.64;99478.13;109124;1274;137948;-62
2022/06/25 04:57:50;;;;;;;3.70;3.20;;;;;;;20.11;57.42;99477.85;109261;1274;23250;-61
2022/06/25 05:00:35;;;;;;;11.20;5.00;;;;;;;20.19;57.39;99477.90;109408;1274;23564;-61
2022/06/25 05:03:07;;;;;;;7.10;4.90;;;;;;;20.26;57.36;99479.05;109176;1274;138823;-61
2022/06/25 05:05:35;;;;;;;6.10;4.00;;;;;;;20.36;57.30;99478.17;109251;1274;22412;-62
2022/06/25 05:08:07;;;;;;;5.30;3.80;;;;;;;20.45;57.22;99482.44;109308;1274;138243;-62
2022/06/25 05:10:34;;;;;;;4.60;3.40;;;;;;;20.58;57.23;99481.27;109376;1274;22460;-61
2022/06/25 05:13:13;;;;;;;7.20;4.90;;;;;;;20.71;57.03;99488.63;109376;1274;22468;-61
2022/06/25 05:15:43;;;;;;;4.70;4.10;;;;;;;20.88;56.78;99483.71;109112;1274;138865;-62
2022/06/25 05:18:11;;;;;;;16.00;6.80;;;;;;;21.07;56.35;99487.63;109411;1274;22521;-62
2022/06/25 05:20:39;;;;;;;4.90;3.60;;;;;;;21.27;55.33;99480.52;109220;1274;137329;-61
2022/06/25 05:23:07;;;;;;;5.80;4.10;;;;;;;21.50;54.34;99481.95;109341;1274;22685;-61
2022/06/25 05:25:34;;;;;;;5.00;3.80;;;;;;;21.74;53.61;99486.41;109191;1274;137737;-62
2022/06/25 05:28:01;;;;;;;3.50;3.20;;;;;;;21.96;53.29;99485.52;109260;1273;23091;-62
2022/06/25 05:30:29;;;;;;;6.30;3.60;;;;;;;22.25;52.72;99485.73;109422;1274;22438;-62
2022/06/25 05:32:55;;;;;;;5.60;3.20;;;;;;;22.62;51.86;99485.61;109228;1274;137496;-62
2022/06/25 05:35:24;;;;;;;10.70;6.00;;;;;;;22.91;51.33;99486.16;109331;1274;22462;-62
2022/06/25 05:37:50;;;;;;;8.70;5.10;;;;;;;23.22;50.72;99487.92;109263;1274;138315;-62
2022/06/25 05:40:18;;;;;;;11.60;9.30;;;;;;;23.57;50.07;99488.05;109274;1274;22503;-62
2022/06/25 05:42:44;;;;;;;5.10;3.50;;;;;;;23.92;49.15;99491.10;109425;1273;23148;-62
2022/06/25 05:45:12;;;;;;;11.60;3.10;;;;;;;24.18;48.21;99490.58;109261;1273;138759;-61
2022/06/25 05:47:39;;;;;;;3.90;3.10;;;;;;;24.39;48.05;99495.18;104843;1274;22867;-60
2022/06/25 05:50:06;;;;;;;3.80;3.50;;;;;;;24.57;47.37;99492.21;104808;1277;137977;-62
2022/06/25 05:52:33;;;;;;;8.20;3.50;;;;;;;24.70;47.73;99494.67;104797;1274;23066;-62
2022/06/25 05:55:00;;;;;;;5.00;3.30;;;;;;;24.81;46.88;99499.16;104846;1274;22562;-62
2022/06/25 05:57:27;;;;;;;7.90;5.30;;;;;;;24.82;46.90;99500.98;108543;1273;139688;-63
2022/06/25 05:59:54;;;;;;;5.90;5.00;;;;;;;24.80;46.75;99497.70;109335;1274;22432;-63
2022/06/25 06:02:20;;;;;;;5.50;3.20;;;;;;;24.71;46.76;99498.45;109253;1273;137659;-62
2022/06/25 06:04:47;;;;;;;6.80;3.40;;;;;;;24.59;46.69;99499.77;109302;1273;22406;-65
2022/06/25 06:07:14;;;;;;;5.70;3.60;;;;;;;24.44;46.84;99506.46;109393;1274;23227;-64
2022/06/25 06:09:41;;;;;;;6.10;3.80;;;;;;;24.34;46.66;99507.91;109200;1274;137681;-65
2022/06/25 06:12:08;;;;;;;5.20;3.40;;;;;;;24.24;46.45;99512.84;109258;1274;23463;-66
2022/06/25 06:14:34;;;;;;;3.50;2.90;;;;;;;24.10;46.89;99514.20;109336;1274;137329;-65
2022/06/25 06:17:01;;;;;;;3.60;3.20;;;;;;;23.98;47.42;99512.83;109374;1274;22370;-65
2022/06/25 06:19:28;;;;;;;3.30;3.00;;;;;;;23.89;47.71;99509.77;109310;1274;138189;-66
2022/06/25 06:21:55;;;;;;;4.60;3.20;;;;;;;23.86;47.43;99512.81;109364;1274;22495;-66
2022/06/25 06:24:22;;;;;;;4.20;3.10;;;;;;;23.76;47.82;99511.23;109364;1274;23231;-66
2022/06/25 06:26:48;;;;;;;7.70;3.30;;;;;;;23.69;47.78;99508.40;109187;1273;137316;-66
2022/06/25 06:29:17;;;;;;;3.60;2.90;;;;;;;23.62;47.63;99509.70;109343;1274;23565;-67
2022/06/25 06:31:44;;;;;;;3.50;3.20;;;;;;;23.57;47.98;99509.92;109217;1274;138054;-65
2022/06/25 06:34:11;;;;;;;4.10;3.00;;;;;;;23.53;48.06;99505.67;109283;1274;22513;-64
2022/06/25 06:36:37;;;;;;;3.50;3.10;;;;;;;23.51;47.93;99500.90;109315;1274;22420;-63
2022/06/25 06:39:04;;;;;;;4.30;3.10;;;;;;;23.48;48.24;99503.73;109122;1274;138489;-63
2022/06/25 06:41:31;;;;;;;5.80;3.40;;;;;;;23.46;48.12;99503.58;109305;1274;22471;-64
2022/06/25 06:43:58;;;;;;;5.10;3.90;;;;;;;23.48;48.60;99507.84;109250;1274;140150;-63
2022/06/25 06:46:24;;;;;;;7.80;3.10;;;;;;;23.54;47.85;99506.25;109300;1274;22491;-63
2022/06/25 06:48:51;;;;;;;4.20;2.70;;;;;;;23.55;48.02;99509.87;109456;1274;22461;-63
2022/06/25 06:51:18;;;;;;;3.50;2.40;;;;;;;23.52;47.68;99509.75;109261;1274;138845;-63
2022/06/25 06:53:45;;;;;;;3.20;2.50;;;;;;;23.38;47.21;99506.63;109420;1274;22383;-63
2022/06/25 06:56:12;;;;;;;4.00;3.00;;;;;;;23.24;47.83;99505.10;109263;1274;138216;-63
2022/06/25 06:58:38;;;;;;;3.90;2.80;;;;;;;23.17;48.20;99512.45;109413;1273;22502;-63
2022/06/25 07:01:05;;;;;;;4.20;2.80;;;;;;;23.10;48.09;99512.34;109277;1274;22467;-62
2022/06/25 07:03:32;;;;;;;3.80;3.10;;;;;;;23.04;48.45;99515.25;109211;1274;139168;-63
2022/06/25 07:05:59;;;;;;;8.10;2.80;;;;;;;23.01;48.64;99518.67;109339;1274;22536;-62
2022/06/25 07:08:26;;;;;;;3.20;2.90;;;;;;;22.96;49.01;99519.85;109205;1274;138423;-63
2022/06/25 07:10:53;;;;;;;5.00;2.60;;;;;;;22.91;49.47;99518.35;109454;1274;22459;-62
2022/06/25 07:13:20;;;;;;;5.20;2.40;;;;;;;22.90;48.94;99516.71;109383;1274;24637;-63
2022/06/25 07:15:47;;;;;;;7.00;3.00;;;;;;;22.88;48.90;99514.17;109280;1274;138057;-62
2022/06/25 07:18:13;;;;;;;3.80;2.40;;;;;;;22.86;48.30;99510.98;109391;1274;22432;-63
2022/06/25 07:20:40;;;;;;;4.90;2.40;;;;;;;22.82;47.65;99511.72;109193;1275;137719;-62
2022/06/25 07:23:07;;;;;;;5.80;2.20;;;;;;;22.79;46.51;99513.53;109347;1274;23172;-63
2022/06/25 07:25:34;;;;;;;7.80;2.70;;;;;;;22.76;46.96;99514.38;109218;1274;137407;-63
2022/06/25 07:28:01;;;;;;;7.20;2.80;;;;;;;22.79;47.42;99517.16;109353;1274;22453;-63
2022/06/25 07:30:28;;;;;;;5.80;2.50;;;;;;;22.88;47.45;99513.36;109325;1274;22454;-63
2022/06/25 07:32:55;;;;;;;7.70;2.70;;;;;;;23.01;47.30;99518.99;109279;1274;139757;-61
2022/06/25 07:35:22;;;;;;;4.40;2.30;;;;;;;23.11;46.72;99515.96;109364;1273;22432;-63
2022/06/25 07:37:48;;;;;;;8.00;3.10;;;;;;;23.15;46.47;99516.58;109197;1274;137858;-65
2022/06/25 07:40:25;;;;;;;3.20;2.40;;;;;;;23.16;46.72;99516.30;109348;1274;23700;-64
2022/06/25 07:42:52;;;;;;;5.60;3.00;;;;;;;23.18;46.58;99514.23;109453;1274;24254;-65
2022/06/25 07:45:19;;;;;;;4.30;2.60;;;;;;;23.18;46.90;99511.32;109232;1274;137815;-64
2022/06/25 07:47:46;;;;;;;3.10;2.30;;;;;;;23.20;46.81;99506.08;109444;1274;22439;-65
2022/06/25 07:52:58;;;;;;;4.30;2.30;;;;;;;23.25;46.10;99508.52;109398;1274;23324;-65
2022/06/25 07:55:25;;;;;;;3.10;2.40;;;;;;;23.27;46.09;99513.84;109277;1274;139544;-65
2022/06/25 07:57:51;;;;;;;2.30;2.10;;;;;;;23.30;46.15;99516.17;109341;1274;22543;-64
2022/06/25 08:00:18;;;;;;;5.80;2.50;;;;;;;23.35;46.01;99516.20;109461;1273;22508;-65
2022/06/25 08:02:45;;;;;;;7.70;2.50;;;;;;;23.43;46.01;99516.42;109367;1274;137875;-64
2022/06/25 08:05:12;;;;;;;2.50;2.10;;;;;;;23.53;45.35;99516.37;109446;1274;22488;-64
2022/06/25 08:07:38;;;;;;;4.40;2.20;;;;;;;23.57;45.14;99522.09;109198;1274;137491;-63
2022/06/25 08:10:06;;;;;;;3.80;2.90;;;;;;;23.58;45.00;99524.13;109484;1274;22590;-64
2022/06/25 08:12:32;;;;;;;2.80;2.50;;;;;;;23.57;45.10;99520.26;109334;1274;22456;-64
2022/06/25 08:14:59;;;;;;;8.00;2.30;;;;;;;23.55;45.08;99519.79;109363;1274;137441;-64
2022/06/25 08:17:26;;;;;;;2.80;2.30;;;;;;;23.54;45.55;99519.37;109447;1274;22444;-65
2022/06/25 08:19:53;;;;;;;3.50;2.30;;;;;;;23.55;45.47;99519.09;109248;1274;139597;-64
2022/06/25 08:22:19;;;;;;;3.00;2.40;;;;;;;23.57;45.00;99518.77;109384;1274;22485;-64
2022/06/25 08:24:46;;;;;;;4.40;2.40;;;;;;;23.58;45.26;99518.15;109297;1274;22483;-64
2022/06/25 08:27:13;;;;;;;3.50;2.60;;;;;;;23.58;46.10;99516.02;109303;1274;138306;-64
2022/06/25 08:29:40;;;;;;;14.10;2.70;;;;;;;23.61;45.83;99517.08;109405;1274;22443;-64
2022/06/25 08:32:07;;;;;;;5.30;2.80;;;;;;;23.70;46.37;99510.62;109286;1274;138906;-64
2022/06/25 08:34:33;;;;;;;6.70;2.50;;;;;;;23.80;44.91;99506.11;109355;1274;23785;-64
2022/06/25 08:37:00;;;;;;;4.00;2.70;;;;;;;23.84;45.14;99509.42;109440;1274;22414;-64
2022/06/25 08:39:27;;;;;;;5.90;2.80;;;;;;;23.82;45.51;99515.48;109277;1274;137180;-64
2022/06/25 08:41:54;;;;;;;2.60;2.30;;;;;;;23.81;45.23;99519.33;109468;1274;22437;-64
2022/06/25 08:44:21;;;;;;;5.10;2.90;;;;;;;23.78;45.32;99516.46;109188;1275;138783;-64
2022/06/25 08:46:48;;;;;;;4.00;2.50;;;;;;;23.81;45.39;99519.81;109253;1275;22522;-63
2022/06/25 08:49:15;;;;;;;3.10;2.20;;;;;;;23.86;44.59;99514.41;109304;1274;22463;-64
2022/06/25 08:51:41;;;;;;;4.40;2.40;;;;;;;23.92;44.74;99514.14;109126;1275;138008;-64
2022/06/25 08:54:08;;;;;;;9.40;2.60;;;;;;;24.03;44.52;99520.55;109215;1274;23841;-64
2022/06/25 08:56:35;;;;;;;3.80;2.50;;;;;;;24.18;45.20;99514.27;109227;1274;137316;-64
2022/06/25 08:59:02;;;;;;;2.90;2.00;;;;;;;24.28;45.06;99512.64;109317;1274;22629;-64
2022/06/25 09:01:29;;;;;;;4.90;2.30;;;;;;;24.33;44.10;99512.96;109277;1273;137132;-65
2022/06/25 09:03:56;;;;;;;5.60;2.20;;;;;;;24.31;43.37;99511.95;109305;1275;22527;-64
2022/06/25 09:06:23;;;;;;;3.50;2.20;;;;;;;24.24;43.90;99517.77;109466;1274;23285;-65
2022/06/25 09:09:09;;;;;;;3.20;2.40;;;;;;;24.18;44.73;99512.69;109197;1274;138987;-65
2022/06/25 09:11:57;;;;;;;3.90;2.70;;;;;;;24.19;45.33;99515.20;109341;1274;23467;-65
2022/06/25 09:14:28;;;;;;;3.00;2.40;;;;;;;24.27;45.19;99513.65;109262;1273;138260;-65
2022/06/25 09:16:56;;;;;;;5.80;2.90;;;;;;;24.37;44.85;99516.91;109295;1274;23236;-65
2022/06/25 09:19:31;;;;;;;2.80;2.50;;;;;;;24.41;44.44;99519.81;109195;1274;137921;-65
2022/06/25 09:21:58;;;;;;;3.10;2.70;;;;;;;24.39;44.07;99515.83;109403;1274;23200;-66
2022/06/25 09:24:40;;;;;;;6.10;2.60;;;;;;;24.30;44.02;99513.59;109319;1274;22488;-64
2022/06/25 09:27:07;;;;;;;4.60;2.40;;;;;;;24.23;44.01;99514.53;109210;1274;137735;-64
2022/06/25 09:29:42;;;;;;;4.70;2.40;;;;;;;24.18;43.93;99514.69;109353;1274;22402;-63
2022/06/25 09:32:09;;;;;;;6.10;2.80;;;;;;;24.14;44.45;99519.25;109209;1274;137880;-64
2022/06/25 09:34:37;;;;;;;2.70;2.00;;;;;;;24.14;44.57;99518.11;109336;1274;22409;-65
2022/06/25 09:37:20;;;;;;;2.50;2.30;;;;;;;24.15;45.01;99520.06;105935;1274;25561;-64
2022/06/25 09:39:47;;;;;;;5.40;2.80;;;;;;;24.15;44.19;99512.66;104883;1274;137290;-63
2022/06/25 09:42:21;;;;;;;2.70;2.50;;;;;;;24.11;44.48;99518.83;104960;1277;25392;-63
2022/06/25 09:44:48;;;;;;;3.20;2.60;;;;;;;24.06;44.19;99516.76;109192;1274;138631;-64
2022/06/25 09:47:15;;;;;;;2.80;2.50;;;;;;;24.01;44.83;99514.19;109416;1274;22565;-64
2022/06/25 09:49:42;;;;;;;3.60;2.80;;;;;;;24.04;45.23;99519.95;109231;1275;138682;-63
2022/06/25 09:52:10;;;;;;;3.70;2.40;;;;;;;24.09;44.37;99515.73;109320;1274;22451;-63
2022/06/25 09:54:37;;;;;;;6.10;2.50;;;;;;;24.09;44.40;99518.21;109469;1274;22808;-64
2022/06/25 09:57:04;;;;;;;4.70;2.70;;;;;;;24.09;44.94;99517.24;109203;1275;140241;-64
2022/06/25 09:59:31;;;;;;;7.60;3.30;;;;;;;24.11;45.14;99521.36;109288;1274;23095;-64
2022/06/25 10:01:58;;;;;;;8.00;2.50;;;;;;;24.18;44.63;99525.49;109271;1274;137494;-64
2022/06/25 10:04:28;;;;;;;5.80;2.30;;;;;;;24.23;44.34;99517.33;109156;1276;22443;-64
2022/06/25 10:06:54;;;;;;;5.00;2.80;;;;;;;24.26;44.36;99517.73;109378;1274;22541;-63
2022/06/25 10:09:21;;;;;;;3.90;2.70;;;;;;;24.27;44.34;99514.84;109177;1274;138727;-63
2022/06/25 10:11:48;;;;;;;4.30;2.80;;;;;;;24.25;44.17;99515.39;109090;1277;23646;-64
2022/06/25 10:14:15;;;;;;;6.90;2.70;;;;;;;24.21;44.33;99509.38;109276;1274;138423;-63
2022/06/25 10:16:41;;;;;;;3.30;2.20;;;;;;;24.18;43.85;99512.86;109281;1274;23266;-63
2022/06/25 10:19:12;;;;;;;3.70;2.70;;;;;;;24.15;43.73;99516.81;109236;1273;22466;-64
2022/06/25 10:21:40;;;;;;;4.30;2.20;;;;;;;24.14;44.03;99514.63;109000;1276;138623;-64
2022/06/25 10:24:06;;;;;;;2.80;2.60;;;;;;;24.16;43.60;99509.77;109253;1274;23219;-64
2022/06/25 10:26:34;;;;;;;3.10;2.30;;;;;;;24.21;43.78;99511.85;109157;1274;137698;-64
2022/06/25 10:29:03;;;;;;;2.70;2.00;;;;;;;24.23;43.45;99511.24;109293;1274;22451;-64
2022/06/25 10:31:30;;;;;;;2.80;2.40;;;;;;;24.22;43.39;99510.15;109167;1274;138092;-65
2022/06/25 10:33:58;;;;;;;4.40;2.60;;;;;;;24.18;43.20;99507.14;109346;1274;22425;-64
2022/06/25 10:36:42;;;;;;;3.10;2.50;;;;;;;24.17;43.48;99508.21;109364;1275;22504;-64
2022/06/25 10:39:27;;;;;;;3.80;2.40;;;;;;;24.17;43.41;99518.08;109249;1275;137372;-64
2022/06/25 10:45:00;;;;;;;5.00;2.20;;;;;;;24.19;43.18;99508.29;109233;1274;137956;-65
2022/06/25 10:47:37;;;;;;;2.70;2.40;;;;;;;24.21;43.48;99506.60;109345;1274;22453;-63
2022/06/25 10:50:23;;;;;;;8.10;3.00;;;;;;;24.21;43.71;99510.02;109113;1276;138019;-63
2022/06/25 10:53:03;;;;;;;4.20;2.40;;;;;;;24.20;43.93;99507.36;109361;1274;22460;-64
2022/06/25 10:55:48;;;;;;;5.60;2.00;;;;;;;24.20;44.37;99505.61;109149;1276;138475;-65
2022/06/25 10:58:17;;;;;;;2.50;2.20;;;;;;;24.26;44.78;99506.23;109339;1276;22426;-64
2022/06/25 11:00:49;;;;;;;3.30;2.30;;;;;;;24.36;43.86;99503.52;109284;1276;22977;-66
2022/06/25 11:03:16;;;;;;;3.90;2.50;;;;;;;24.42;43.52;99499.39;109179;1276;137376;-64
2022/06/25 11:05:45;;;;;;;2.50;2.20;;;;;;;24.45;43.13;99500.27;109332;1275;22446;-64
2022/06/25 11:08:11;;;;;;;3.10;2.50;;;;;;;24.45;42.75;99497.42;109222;1274;137543;-64
2022/06/25 11:10:39;;;;;;;5.20;2.70;;;;;;;24.45;42.59;99502.90;109216;1276;23311;-64
2022/06/25 11:13:07;;;;;;;3.30;2.40;;;;;;;24.44;42.74;99502.71;109290;1275;22630;-64
2022/06/25 11:15:44;;;;;;;3.50;2.50;;;;;;;24.43;42.35;99504.98;109157;1274;139099;-64
2022/06/25 11:18:12;;;;;;;3.30;2.40;;;;;;;24.40;42.29;99504.01;109378;1274;22437;-64
2022/06/25 11:20:40;;;;;;;3.80;2.00;;;;;;;24.37;42.32;99512.61;109149;1276;137339;-65
2022/06/25 11:23:10;;;;;;;7.10;2.70;;;;;;;24.34;42.22;99502.90;109243;1276;23627;-65
2022/06/25 11:28:48;;;;;;;4.90;2.40;;;;;;;24.34;43.26;99498.73;109249;1276;22428;-64
2022/06/25 11:31:15;;;;;;;5.80;2.10;;;;;;;24.40;42.72;99501.16;109226;1276;22569;-64
2022/06/25 11:33:43;;;;;;;7.70;2.70;;;;;;;24.45;42.81;99499.48;109191;1274;137462;-64
2022/06/25 11:36:10;;;;;;;7.60;2.50;;;;;;;24.47;42.94;99508.70;109382;1274;22536;-64
2022/06/25 11:38:38;;;;;;;17.10;4.20;;;;;;;24.47;43.18;99499.55;109117;1274;139086;-64
2022/06/25 11:41:05;;;;;;;6.00;2.70;;;;;;;24.48;43.08;99499.02;109207;1275;23230;-64
2022/06/25 11:43:34;;;;;;;4.90;2.40;;;;;;;24.51;43.32;99500.08;105539;1276;138187;-63
2022/06/25 11:46:01;;;;;;;2.90;2.20;;;;;;;24.62;43.18;99495.64;104851;1277;22767;-63
2022/06/25 11:48:29;;;;;;;4.70;2.30;;;;;;;24.77;42.44;99497.27;104814;1275;24244;-63
2022/06/25 11:50:58;;;;;;;3.80;2.00;;;;;;;24.87;41.94;99495.82;104740;1277;138192;-64